sensor_id;sensor_type;location;lat;lon;timestamp;pressure;altitude;pressure_sealevel;temperature;humidity
34454;BME280;60061;52.080;5.312;2022-08-11T00:00:32;102252.0;;;21.38;60.71
34454;BME280;60061;52.080;5.312;2022-08-11T00:02:26;102252.0;;;21.38;60.55
34454;BME280;60061;52.080;5.312;2022-08-11T00:04:15;102250.0;;;21.33;61.22
34454;BME280;60061;52.080;5.312;2022-08-11T00:06:03;102249.0;;;21.33;60.75
34454;BME280;60061;52.080;5.312;2022-08-11T00:07:52;102253.0;;;21.33;60.64
34454;BME280;60061;52.080;5.312;2022-08-11T00:11:35;102245.0;;;21.26;60.85
34454;BME280;60061;52.080;5.312;2022-08-11T00:13:32;102248.0;;;21.21;60.82
34454;BME280;60061;52.080;5.312;2022-08-11T00:15:20;102247.0;;;21.13;61.23
34454;BME280;60061;52.080;5.312;2022-08-11T00:17:10;102246.0;;;21.1;61.27
34454;BME280;60061;52.080;5.312;2022-08-11T00:19:00;102246.0;;;21.05;61.7
34454;BME280;60061;52.080;5.312;2022-08-11T00:20:49;102255.0;;;20.98;61.53
34454;BME280;60061;52.080;5.312;2022-08-11T00:22:38;102255.0;;;20.96;61.23
34454;BME280;60061;52.080;5.312;2022-08-11T00:24:31;102255.0;;;20.95;61.73
34454;BME280;60061;52.080;5.312;2022-08-11T00:28:25;102258.0;;;20.92;62.1
34454;BME280;60061;52.080;5.312;2022-08-11T00:30:14;102259.0;;;20.86;61.88
34454;BME280;60061;52.080;5.312;2022-08-11T00:32:03;102260.0;;;20.85;62.87
34454;BME280;60061;52.080;5.312;2022-08-11T00:33:51;102256.0;;;20.83;62.5
34454;BME280;60061;52.080;5.312;2022-08-11T00:35:38;102258.0;;;20.82;62.6
34454;BME280;60061;52.080;5.312;2022-08-11T00:37:26;102258.0;;;20.79;62.71
34454;BME280;60061;52.080;5.312;2022-08-11T00:39:15;102256.0;;;20.74;62.25
34454;BME280;60061;52.080;5.312;2022-08-11T00:43:14;102258.0;;;20.67;62.62
34454;BME280;60061;52.080;5.312;2022-08-11T00:45:26;102256.0;;;20.54;63.17
34454;BME280;60061;52.080;5.312;2022-08-11T00:49:30;102257.0;;;20.52;63.2
34454;BME280;60061;52.080;5.312;2022-08-11T00:51:43;102260.0;;;20.48;62.89
34454;BME280;60061;52.080;5.312;2022-08-11T00:53:39;102263.0;;;20.43;63.58
34454;BME280;60061;52.080;5.312;2022-08-11T00:59:46;102261.0;;;20.36;63.36
34454;BME280;60061;52.080;5.312;2022-08-11T01:02:16;102263.0;;;20.27;63.58
34454;BME280;60061;52.080;5.312;2022-08-11T01:07:07;102257.0;;;20.18;63.63
34454;BME280;60061;52.080;5.312;2022-08-11T01:09:34;102257.0;;;20.16;63.63
34454;BME280;60061;52.080;5.312;2022-08-11T01:12:52;102258.0;;;20.02;64.44
34454;BME280;60061;52.080;5.312;2022-08-11T01:16:37;102259.0;;;19.95;64.64
34454;BME280;60061;52.080;5.312;2022-08-11T01:20:02;102252.0;;;19.91;64.62
34454;BME280;60061;52.080;5.312;2022-08-11T01:21:53;102252.0;;;19.88;65.11
34454;BME280;60061;52.080;5.312;2022-08-11T01:22:56;102252.0;;;19.88;65.11
34454;BME280;60061;52.080;5.312;2022-08-11T01:24:46;102250.0;;;19.86;64.55
34454;BME280;60061;52.080;5.312;2022-08-11T01:25:42;102249.0;;;19.86;64.94
34454;BME280;60061;52.080;5.312;2022-08-11T01:27:47;102250.0;;;19.81;64.97
34454;BME280;60061;52.080;5.312;2022-08-11T01:30:45;102248.0;;;19.78;65.6
34454;BME280;60061;52.080;5.312;2022-08-11T01:31:42;102246.0;;;19.71;65.91
34454;BME280;60061;52.080;5.312;2022-08-11T01:32:44;102246.0;;;19.71;65.91
34454;BME280;60061;52.080;5.312;2022-08-11T01:35:34;102244.0;;;19.62;65.92
34454;BME280;60061;52.080;5.312;2022-08-11T01:37:57;102244.0;;;19.56;66.49
34454;BME280;60061;52.080;5.312;2022-08-11T01:41:32;102240.0;;;19.37;66.8
34454;BME280;60061;52.080;5.312;2022-08-11T01:45:05;102248.0;;;19.3;67.41
34454;BME280;60061;52.080;5.312;2022-08-11T01:48:01;102245.0;;;19.27;67.52
34454;BME280;60061;52.080;5.312;2022-08-11T01:49:56;102246.0;;;19.25;67.22
34454;BME280;60061;52.080;5.312;2022-08-11T01:52:03;102247.0;;;19.22;67.55
34454;BME280;60061;52.080;5.312;2022-08-11T01:54:00;102244.0;;;19.22;67.44
34454;BME280;60061;52.080;5.312;2022-08-11T01:55:57;102247.0;;;19.2;67.45
34454;BME280;60061;52.080;5.312;2022-08-11T01:57:52;102242.0;;;19.18;67.69
34454;BME280;60061;52.080;5.312;2022-08-11T01:59:50;102241.0;;;19.09;67.95
34454;BME280;60061;52.080;5.312;2022-08-11T02:01:56;102241.0;;;19.05;68.88
34454;BME280;60061;52.080;5.312;2022-08-11T02:04:08;102243.0;;;19.07;67.97
34454;BME280;60061;52.080;5.312;2022-08-11T02:07:00;102246.0;;;19.06;68.56
34454;BME280;60061;52.080;5.312;2022-08-11T02:08:54;102247.0;;;19.09;68.23
34454;BME280;60061;52.080;5.312;2022-08-11T02:11:54;102243.0;;;19.07;67.97
34454;BME280;60061;52.080;5.312;2022-08-11T02:13:59;102236.0;;;18.98;68.19
34454;BME280;60061;52.080;5.312;2022-08-11T02:16:02;102238.0;;;18.97;68.62
34454;BME280;60061;52.080;5.312;2022-08-11T02:18:05;102244.0;;;19.0;67.91
34454;BME280;60061;52.080;5.312;2022-08-11T02:24:03;102235.0;;;19.0;67.67
34454;BME280;60061;52.080;5.312;2022-08-11T02:26:04;102230.0;;;18.97;68.02
34454;BME280;60061;52.080;5.312;2022-08-11T02:28:00;102234.0;;;19.0;67.97
34454;BME280;60061;52.080;5.312;2022-08-11T02:35:00;102232.0;;;18.89;69.44
34454;BME280;60061;52.080;5.312;2022-08-11T02:37:09;102236.0;;;18.91;69.61
34454;BME280;60061;52.080;5.312;2022-08-11T02:39:02;102232.0;;;18.88;69.31
34454;BME280;60061;52.080;5.312;2022-08-11T02:41:00;102231.0;;;18.87;69.45
34454;BME280;60061;52.080;5.312;2022-08-11T02:42:55;102234.0;;;18.86;69.56
34454;BME280;60061;52.080;5.312;2022-08-11T02:44:57;102238.0;;;18.86;69.0
34454;BME280;60061;52.080;5.312;2022-08-11T02:47:02;102239.0;;;18.84;69.34
34454;BME280;60061;52.080;5.312;2022-08-11T02:50:02;102234.0;;;18.84;69.25
34454;BME280;60061;52.080;5.312;2022-08-11T02:52:03;102232.0;;;18.81;69.49
34454;BME280;60061;52.080;5.312;2022-08-11T02:54:05;102236.0;;;18.8;69.5
34454;BME280;60061;52.080;5.312;2022-08-11T02:56:03;102230.0;;;18.77;70.52
34454;BME280;60061;52.080;5.312;2022-08-11T02:57:56;102227.0;;;18.75;69.89
34454;BME280;60061;52.080;5.312;2022-08-11T02:59:54;102227.0;;;18.7;69.69
34454;BME280;60061;52.080;5.312;2022-08-11T03:01:45;102223.0;;;18.66;70.33
34454;BME280;60061;52.080;5.312;2022-08-11T03:03:46;102223.0;;;18.61;70.58
34454;BME280;60061;52.080;5.312;2022-08-11T03:06:07;102224.0;;;18.64;70.89
34454;BME280;60061;52.080;5.312;2022-08-11T03:08:10;102224.0;;;18.61;71.92
34454;BME280;60061;52.080;5.312;2022-08-11T03:10:12;102221.0;;;18.7;71.49
34454;BME280;60061;52.080;5.312;2022-08-11T03:18:20;102215.0;;;18.79;71.47
34454;BME280;60061;52.080;5.312;2022-08-11T03:20:24;102216.0;;;18.79;71.61
34454;BME280;60061;52.080;5.312;2022-08-11T03:22:24;102217.0;;;18.77;73.25
34454;BME280;60061;52.080;5.312;2022-08-11T03:26:20;102216.0;;;18.8;72.27
34454;BME280;60061;52.080;5.312;2022-08-11T03:28:25;102208.0;;;18.82;70.59
34454;BME280;60061;52.080;5.312;2022-08-11T03:30:17;102215.0;;;18.84;70.66
34454;BME280;60061;52.080;5.312;2022-08-11T03:32:09;102213.0;;;18.89;71.99
34454;BME280;60061;52.080;5.312;2022-08-11T03:34:06;102214.0;;;18.91;72.67
34454;BME280;60061;52.080;5.312;2022-08-11T03:38:09;102215.0;;;18.91;71.58
34454;BME280;60061;52.080;5.312;2022-08-11T03:40:05;102214.0;;;18.98;71.56
34454;BME280;60061;52.080;5.312;2022-08-11T03:42:09;102217.0;;;19.02;71.52
34454;BME280;60061;52.080;5.312;2022-08-11T03:44:24;102216.0;;;19.02;72.3
34454;BME280;60061;52.080;5.312;2022-08-11T03:46:35;102218.0;;;19.07;71.16
34454;BME280;60061;52.080;5.312;2022-08-11T03:48:48;102218.0;;;19.02;72.16
34454;BME280;60061;52.080;5.312;2022-08-11T03:50:54;102216.0;;;19.02;73.3
34454;BME280;60061;52.080;5.312;2022-08-11T03:53:15;102218.0;;;19.06;71.72
34454;BME280;60061;52.080;5.312;2022-08-11T03:55:13;102216.0;;;19.05;72.23
34454;BME280;60061;52.080;5.312;2022-08-11T04:00:52;102211.0;;;19.09;72.36
34454;BME280;60061;52.080;5.312;2022-08-11T04:04:22;102212.0;;;19.03;73.44
34454;BME280;60061;52.080;5.312;2022-08-11T04:07:55;102211.0;;;19.02;74.42
34454;BME280;60061;52.080;5.312;2022-08-11T04:16:43;102207.0;;;18.96;73.16
34454;BME280;60061;52.080;5.312;2022-08-11T04:21:48;102205.0;;;18.97;74.77
34454;BME280;60061;52.080;5.312;2022-08-11T04:24:35;102205.0;;;19.0;74.16
34454;BME280;60061;52.080;5.312;2022-08-11T04:27:16;102199.0;;;19.05;73.94
34454;BME280;60061;52.080;5.312;2022-08-11T04:29:16;102202.0;;;19.06;74.33
34454;BME280;60061;52.080;5.312;2022-08-11T04:31:24;102199.0;;;19.09;74.13
34454;BME280;60061;52.080;5.312;2022-08-11T04:33:40;102206.0;;;19.09;74.53
34454;BME280;60061;52.080;5.312;2022-08-11T04:35:53;102199.0;;;19.06;73.14
34454;BME280;60061;52.080;5.312;2022-08-11T04:38:08;102199.0;;;19.09;73.88
34454;BME280;60061;52.080;5.312;2022-08-11T04:40:48;102196.0;;;19.14;74.36
34454;BME280;60061;52.080;5.312;2022-08-11T04:45:48;102197.0;;;19.06;74.41
34454;BME280;60061;52.080;5.312;2022-08-11T05:02:14;102199.0;;;19.41;73.5
34454;BME280;60061;52.080;5.312;2022-08-11T05:12:27;102198.0;;;19.75;71.94
34454;BME280;60061;52.080;5.312;2022-08-11T05:35:01;102205.0;;;19.82;71.16
34454;BME280;60061;52.080;5.312;2022-08-11T05:37:22;102211.0;;;19.91;70.94
34454;BME280;60061;52.080;5.312;2022-08-11T05:57:29;102220.0;;;20.03;70.99
34454;BME280;60061;52.080;5.312;2022-08-11T05:59:20;102226.0;;;20.11;70.75
34454;BME280;60061;52.080;5.312;2022-08-11T06:03:00;102220.0;;;20.23;70.02
34454;BME280;60061;52.080;5.312;2022-08-11T06:04:54;102221.0;;;20.36;69.84
34454;BME280;60061;52.080;5.312;2022-08-11T06:06:52;102218.0;;;20.46;69.17
34454;BME280;60061;52.080;5.312;2022-08-11T06:08:44;102214.0;;;20.52;68.61
34454;BME280;60061;52.080;5.312;2022-08-11T06:10:34;102219.0;;;20.49;69.3
34454;BME280;60061;52.080;5.312;2022-08-11T06:12:23;102221.0;;;20.46;68.34
34454;BME280;60061;52.080;5.312;2022-08-11T06:14:12;102219.0;;;20.58;68.03
34454;BME280;60061;52.080;5.312;2022-08-11T06:16:01;102227.0;;;20.69;67.75
34454;BME280;60061;52.080;5.312;2022-08-11T06:19:38;102225.0;;;20.75;67.41
34454;BME280;60061;52.080;5.312;2022-08-11T06:21:27;102227.0;;;20.71;67.52
34454;BME280;60061;52.080;5.312;2022-08-11T06:23:17;102228.0;;;20.79;67.1
34454;BME280;60061;52.080;5.312;2022-08-11T06:25:07;102221.0;;;20.84;67.05
34454;BME280;60061;52.080;5.312;2022-08-11T06:26:55;102224.0;;;20.87;65.89
34454;BME280;60061;52.080;5.312;2022-08-11T06:28:44;102230.0;;;21.02;66.12
34454;BME280;60061;52.080;5.312;2022-08-11T06:32:24;102226.0;;;21.11;65.85
34454;BME280;60061;52.080;5.312;2022-08-11T06:34:20;102223.0;;;21.13;65.27
34454;BME280;60061;52.080;5.312;2022-08-11T06:36:22;102221.0;;;21.19;65.16
34454;BME280;60061;52.080;5.312;2022-08-11T06:38:27;102219.0;;;21.26;64.69
34454;BME280;60061;52.080;5.312;2022-08-11T06:40:32;102211.0;;;21.39;64.05
34454;BME280;60061;52.080;5.312;2022-08-11T06:42:33;102216.0;;;21.41;64.8
34454;BME280;60061;52.080;5.312;2022-08-11T06:44:26;102217.0;;;21.48;64.3
34454;BME280;60061;52.080;5.312;2022-08-11T06:46:19;102215.0;;;21.52;64.22
34454;BME280;60061;52.080;5.312;2022-08-11T06:48:15;102218.0;;;21.56;63.35
34454;BME280;60061;52.080;5.312;2022-08-11T06:53:06;102221.0;;;21.83;62.42
34454;BME280;60061;52.080;5.312;2022-08-11T06:55:06;102219.0;;;22.01;61.84
34454;BME280;60061;52.080;5.312;2022-08-11T07:00:31;102210.0;;;22.44;60.34
34454;BME280;60061;52.080;5.312;2022-08-11T07:02:23;102211.0;;;22.51;59.8
34454;BME280;60061;52.080;5.312;2022-08-11T07:04:20;102213.0;;;22.61;58.9
34454;BME280;60061;52.080;5.312;2022-08-11T07:06:29;102216.0;;;22.71;59.53
34454;BME280;60061;52.080;5.312;2022-08-11T07:16:05;102221.0;;;23.34;57.63
34454;BME280;60061;52.080;5.312;2022-08-11T07:28:58;102231.0;;;23.95;55.44
34454;BME280;60061;52.080;5.312;2022-08-11T07:30:47;102228.0;;;24.08;53.7
34454;BME280;60061;52.080;5.312;2022-08-11T07:32:40;102230.0;;;24.21;54.52
34454;BME280;60061;52.080;5.312;2022-08-11T07:34:39;102231.0;;;24.36;54.15
34454;BME280;60061;52.080;5.312;2022-08-11T07:36:31;102232.0;;;24.52;53.89
34454;BME280;60061;52.080;5.312;2022-08-11T07:38:22;102230.0;;;24.58;53.32
34454;BME280;60061;52.080;5.312;2022-08-11T07:40:12;102221.0;;;24.62;53.98
34454;BME280;60061;52.080;5.312;2022-08-11T07:42:05;102232.0;;;24.81;53.7
34454;BME280;60061;52.080;5.312;2022-08-11T07:43:56;102228.0;;;25.02;53.05
34454;BME280;60061;52.080;5.312;2022-08-11T07:52:54;102223.0;;;25.27;51.63
34454;BME280;60061;52.080;5.312;2022-08-11T07:54:41;102217.0;;;25.53;50.68
34454;BME280;60061;52.080;5.312;2022-08-11T07:56:28;102221.0;;;25.67;50.6
34454;BME280;60061;52.080;5.312;2022-08-11T08:19:36;102218.0;;;27.13;47.5
34454;BME280;60061;52.080;5.312;2022-08-11T08:23:10;102217.0;;;27.31;45.9
34454;BME280;60061;52.080;5.312;2022-08-11T08:24:57;102219.0;;;27.41;43.84
34454;BME280;60061;52.080;5.312;2022-08-11T08:27:00;102220.0;;;27.46;45.04
34454;BME280;60061;52.080;5.312;2022-08-11T08:28:46;102216.0;;;27.58;44.55
34454;BME280;60061;52.080;5.312;2022-08-11T08:30:50;102219.0;;;27.79;43.98
34454;BME280;60061;52.080;5.312;2022-08-11T08:32:38;102224.0;;;27.9;42.35
34454;BME280;60061;52.080;5.312;2022-08-11T08:34:27;102215.0;;;28.01;43.13
34454;BME280;60061;52.080;5.312;2022-08-11T08:36:16;102219.0;;;27.95;41.46
34454;BME280;60061;52.080;5.312;2022-08-11T08:39:49;102220.0;;;28.12;42.55
34454;BME280;60061;52.080;5.312;2022-08-11T08:41:37;102214.0;;;28.08;43.21
34454;BME280;60061;52.080;5.312;2022-08-11T08:43:26;102215.0;;;28.29;41.75
34454;BME280;60061;52.080;5.312;2022-08-11T08:45:15;102212.0;;;28.31;40.35
34454;BME280;60061;52.080;5.312;2022-08-11T08:47:06;102210.0;;;28.46;39.64
34454;BME280;60061;52.080;5.312;2022-08-11T08:48:59;102215.0;;;28.4;42.02
34454;BME280;60061;52.080;5.312;2022-08-11T08:51:53;102209.0;;;28.46;40.65
34454;BME280;60061;52.080;5.312;2022-08-11T08:53:48;102206.0;;;28.49;39.87
34454;BME280;60061;52.080;5.312;2022-08-11T08:55:41;102206.0;;;28.62;38.93
34454;BME280;60061;52.080;5.312;2022-08-11T08:57:32;102206.0;;;28.76;39.75
34454;BME280;60061;52.080;5.312;2022-08-11T08:59:23;102200.0;;;28.9;40.58
34454;BME280;60061;52.080;5.312;2022-08-11T09:01:13;102200.0;;;29.13;40.71
34454;BME280;60061;52.080;5.312;2022-08-11T09:06:40;102205.0;;;29.36;39.92
34454;BME280;60061;52.080;5.312;2022-08-11T09:08:30;102205.0;;;29.45;40.96
34454;BME280;60061;52.080;5.312;2022-08-11T09:10:19;102202.0;;;29.56;38.28
34454;BME280;60061;52.080;5.312;2022-08-11T09:12:08;102203.0;;;29.49;39.31
34454;BME280;60061;52.080;5.312;2022-08-11T09:13:57;102205.0;;;29.55;38.53
34454;BME280;60061;52.080;5.312;2022-08-11T09:17:34;102202.0;;;29.5;38.4
34454;BME280;60061;52.080;5.312;2022-08-11T09:19:22;102203.0;;;29.59;39.9
34454;BME280;60061;52.080;5.312;2022-08-11T09:21:15;102206.0;;;29.68;38.07
34454;BME280;60061;52.080;5.312;2022-08-11T09:27:12;102197.0;;;30.02;37.22
34454;BME280;60061;52.080;5.312;2022-08-11T09:29:00;102194.0;;;30.19;35.85
34454;BME280;60061;52.080;5.312;2022-08-11T09:30:52;102187.0;;;30.29;37.78
34454;BME280;60061;52.080;5.312;2022-08-11T09:32:41;102186.0;;;30.32;37.79
34454;BME280;60061;52.080;5.312;2022-08-11T09:40:32;102182.0;;;30.39;34.78
34454;BME280;60061;52.080;5.312;2022-08-11T09:42:20;102183.0;;;30.6;35.67
34454;BME280;60061;52.080;5.312;2022-08-11T09:45:12;102180.0;;;30.63;36.99
34454;BME280;60061;52.080;5.312;2022-08-11T09:47:00;102178.0;;;30.81;35.71
34454;BME280;60061;52.080;5.312;2022-08-11T09:48:48;102176.0;;;30.79;32.31
34454;BME280;60061;52.080;5.312;2022-08-11T09:50:38;102174.0;;;30.79;33.08
34454;BME280;60061;52.080;5.312;2022-08-11T09:52:26;102171.0;;;30.9;33.49
34454;BME280;60061;52.080;5.312;2022-08-11T09:54:17;102175.0;;;30.78;34.78
34454;BME280;60061;52.080;5.312;2022-08-11T09:58:13;102176.0;;;30.83;33.78
34454;BME280;60061;52.080;5.312;2022-08-11T10:00:00;102173.0;;;30.98;32.29
34454;BME280;60061;52.080;5.312;2022-08-11T10:03:47;102175.0;;;31.0;33.71
34454;BME280;60061;52.080;5.312;2022-08-11T10:08:38;102172.0;;;31.11;34.67
34454;BME280;60061;52.080;5.312;2022-08-11T10:10:26;102171.0;;;31.27;33.39
34454;BME280;60061;52.080;5.312;2022-08-11T10:17:19;102171.0;;;31.32;33.14
34454;BME280;60061;52.080;5.312;2022-08-11T10:19:07;102171.0;;;31.24;31.73
34454;BME280;60061;52.080;5.312;2022-08-11T10:20:58;102169.0;;;31.41;33.37
34454;BME280;60061;52.080;5.312;2022-08-11T10:26:54;102166.0;;;31.76;33.08
34454;BME280;60061;52.080;5.312;2022-08-11T10:35:40;102160.0;;;32.01;32.14
34454;BME280;60061;52.080;5.312;2022-08-11T10:37:35;102148.0;;;32.22;30.74
34454;BME280;60061;52.080;5.312;2022-08-11T10:44:15;102151.0;;;32.49;30.34
34454;BME280;60061;52.080;5.312;2022-08-11T10:49:07;102148.0;;;32.42;29.34
34454;BME280;60061;52.080;5.312;2022-08-11T11:00:08;102136.0;;;32.78;29.03
34454;BME280;60061;52.080;5.312;2022-08-11T11:01:57;102131.0;;;32.64;27.47
34454;BME280;60061;52.080;5.312;2022-08-11T11:03:46;102139.0;;;32.29;28.24
34454;BME280;60061;52.080;5.312;2022-08-11T11:05:33;102131.0;;;32.57;29.75
34454;BME280;60061;52.080;5.312;2022-08-11T11:07:30;102130.0;;;32.62;29.31
34454;BME280;60061;52.080;5.312;2022-08-11T11:09:27;102114.0;;;32.74;28.73
34454;BME280;60061;52.080;5.312;2022-08-11T11:11:16;102115.0;;;32.87;27.92
34454;BME280;60061;52.080;5.312;2022-08-11T11:19:52;102112.0;;;32.8;27.91
34454;BME280;60061;52.080;5.312;2022-08-11T11:21:47;102116.0;;;32.99;28.39
34454;BME280;60061;52.080;5.312;2022-08-11T11:23:40;102112.0;;;33.11;26.78
34454;BME280;60061;52.080;5.312;2022-08-11T11:27:31;102112.0;;;33.31;28.62
34454;BME280;60061;52.080;5.312;2022-08-11T11:29:50;102116.0;;;33.43;27.84
34454;BME280;60061;52.080;5.312;2022-08-11T11:31:53;102111.0;;;33.44;26.41
34454;BME280;60061;52.080;5.312;2022-08-11T11:34:00;102111.0;;;33.58;26.97
34454;BME280;60061;52.080;5.312;2022-08-11T11:36:10;102108.0;;;33.78;26.5
34454;BME280;60061;52.080;5.312;2022-08-11T11:38:01;102108.0;;;33.9;25.75
34454;BME280;60061;52.080;5.312;2022-08-11T11:39:53;102106.0;;;33.92;27.38
34454;BME280;60061;52.080;5.312;2022-08-11T11:41:40;102113.0;;;33.85;26.45
34454;BME280;60061;52.080;5.312;2022-08-11T11:43:27;102108.0;;;33.54;25.24
34454;BME280;60061;52.080;5.312;2022-08-11T11:45:15;102105.0;;;33.69;25.44
34454;BME280;60061;52.080;5.312;2022-08-11T11:47:04;102105.0;;;33.79;24.76
34454;BME280;60061;52.080;5.312;2022-08-11T11:48:52;102100.0;;;33.49;24.6
34454;BME280;60061;52.080;5.312;2022-08-11T11:50:41;102096.0;;;33.37;24.77
34454;BME280;60061;52.080;5.312;2022-08-11T11:54:15;102093.0;;;33.6;27.12
34454;BME280;60061;52.080;5.312;2022-08-11T11:56:06;102097.0;;;33.56;24.3
34454;BME280;60061;52.080;5.312;2022-08-11T12:01:27;102093.0;;;33.79;24.62
34454;BME280;60061;52.080;5.312;2022-08-11T12:03:18;102081.0;;;33.85;24.62
34454;BME280;60061;52.080;5.312;2022-08-11T12:08:11;102072.0;;;33.78;26.12
34454;BME280;60061;52.080;5.312;2022-08-11T12:09:58;102080.0;;;33.99;25.36
34454;BME280;60061;52.080;5.312;2022-08-11T12:14:49;102078.0;;;33.96;23.36
34454;BME280;60061;52.080;5.312;2022-08-11T12:16:40;102075.0;;;33.96;24.46
34454;BME280;60061;52.080;5.312;2022-08-11T12:18:26;102071.0;;;34.12;24.11
34454;BME280;60061;52.080;5.312;2022-08-11T12:20:16;102070.0;;;34.17;23.98
34454;BME280;60061;52.080;5.312;2022-08-11T12:28:09;102055.0;;;34.32;23.85
34454;BME280;60061;52.080;5.312;2022-08-11T12:29:58;102058.0;;;34.5;24.01
34454;BME280;60061;52.080;5.312;2022-08-11T12:31:47;102053.0;;;34.39;25.69
34454;BME280;60061;52.080;5.312;2022-08-11T12:33:34;102058.0;;;34.43;25.49
34454;BME280;60061;52.080;5.312;2022-08-11T12:35:20;102055.0;;;34.58;24.05
34454;BME280;60061;52.080;5.312;2022-08-11T12:37:12;102057.0;;;34.72;26.03
34454;BME280;60061;52.080;5.312;2022-08-11T12:39:05;102055.0;;;34.92;25.2
34454;BME280;60061;52.080;5.312;2022-08-11T12:45:42;102043.0;;;35.12;25.96
34454;BME280;60061;52.080;5.312;2022-08-11T12:52:02;102036.0;;;35.14;25.57
34454;BME280;60061;52.080;5.312;2022-08-11T12:54:27;102033.0;;;35.21;23.26
34454;BME280;60061;52.080;5.312;2022-08-11T13:05:23;102033.0;;;34.93;24.87
34454;BME280;60061;52.080;5.312;2022-08-11T13:07:11;102031.0;;;35.12;25.4
34454;BME280;60061;52.080;5.312;2022-08-11T13:08:58;102030.0;;;35.26;24.51
34454;BME280;60061;52.080;5.312;2022-08-11T13:13:48;102028.0;;;34.89;23.47
34454;BME280;60061;52.080;5.312;2022-08-11T13:15:36;102031.0;;;34.86;25.42
34454;BME280;60061;52.080;5.312;2022-08-11T13:17:23;102030.0;;;35.03;25.36
34454;BME280;60061;52.080;5.312;2022-08-11T13:19:11;102027.0;;;35.11;23.71
34454;BME280;60061;52.080;5.312;2022-08-11T13:20:57;102013.0;;;34.81;24.67
34454;BME280;60061;52.080;5.312;2022-08-11T13:22:49;102011.0;;;34.94;26.14
34454;BME280;60061;52.080;5.312;2022-08-11T13:26:24;102021.0;;;35.04;25.09
34454;BME280;60061;52.080;5.312;2022-08-11T13:28:11;102015.0;;;35.14;24.68
34454;BME280;60061;52.080;5.312;2022-08-11T13:31:10;102010.0;;;34.99;23.0
34454;BME280;60061;52.080;5.312;2022-08-11T13:32:57;102005.0;;;34.99;24.08
34454;BME280;60061;52.080;5.312;2022-08-11T13:34:45;102005.0;;;35.18;25.38
34454;BME280;60061;52.080;5.312;2022-08-11T13:36:33;101994.0;;;35.29;26.15
34454;BME280;60061;52.080;5.312;2022-08-11T13:38:23;102005.0;;;35.37;25.74
34454;BME280;60061;52.080;5.312;2022-08-11T13:40:12;102001.0;;;35.39;24.29
34454;BME280;60061;52.080;5.312;2022-08-11T13:41:59;102001.0;;;35.01;24.81
34454;BME280;60061;52.080;5.312;2022-08-11T13:43:47;101996.0;;;35.22;25.43
34454;BME280;60061;52.080;5.312;2022-08-11T13:47:24;101993.0;;;35.14;23.28
34454;BME280;60061;52.080;5.312;2022-08-11T13:49:15;101988.0;;;35.24;26.91
34454;BME280;60061;52.080;5.312;2022-08-11T13:51:35;101987.0;;;35.31;24.53
34454;BME280;60061;52.080;5.312;2022-08-11T13:53:26;101980.0;;;35.42;24.56
34454;BME280;60061;52.080;5.312;2022-08-11T13:55:21;101984.0;;;35.31;24.42
34454;BME280;60061;52.080;5.312;2022-08-11T13:57:08;101986.0;;;35.56;26.73
34454;BME280;60061;52.080;5.312;2022-08-11T13:59:00;101980.0;;;35.71;26.1
34454;BME280;60061;52.080;5.312;2022-08-11T14:00:49;101980.0;;;35.83;25.86
34454;BME280;60061;52.080;5.312;2022-08-11T14:02:41;101981.0;;;35.93;23.61
34454;BME280;60061;52.080;5.312;2022-08-11T14:06:20;101983.0;;;35.78;22.02
34454;BME280;60061;52.080;5.312;2022-08-11T14:08:34;101975.0;;;35.81;22.71
34454;BME280;60061;52.080;5.312;2022-08-11T14:10:26;101976.0;;;35.85;22.94
34454;BME280;60061;52.080;5.312;2022-08-11T14:15:21;101967.0;;;35.61;22.05
34454;BME280;60061;52.080;5.312;2022-08-11T14:17:09;101968.0;;;35.53;23.96
34454;BME280;60061;52.080;5.312;2022-08-11T14:23:54;101962.0;;;35.69;23.68
34454;BME280;60061;52.080;5.312;2022-08-11T14:26:22;101964.0;;;35.56;23.75
34454;BME280;60061;52.080;5.312;2022-08-11T14:28:09;101967.0;;;35.64;23.21
34454;BME280;60061;52.080;5.312;2022-08-11T14:29:57;101963.0;;;35.71;23.31
34454;BME280;60061;52.080;5.312;2022-08-11T14:31:46;101958.0;;;35.78;24.2
34454;BME280;60061;52.080;5.312;2022-08-11T14:35:24;101956.0;;;35.89;23.15
34454;BME280;60061;52.080;5.312;2022-08-11T14:37:13;101956.0;;;35.83;22.96
34454;BME280;60061;52.080;5.312;2022-08-11T14:39:08;101959.0;;;35.81;23.43
34454;BME280;60061;52.080;5.312;2022-08-11T14:47:39;101942.0;;;35.83;23.05
34454;BME280;60061;52.080;5.312;2022-08-11T14:49:28;101939.0;;;36.03;23.03
34454;BME280;60061;52.080;5.312;2022-08-11T14:51:15;101948.0;;;35.93;22.31
34454;BME280;60061;52.080;5.312;2022-08-11T14:53:06;101947.0;;;36.04;23.82
34454;BME280;60061;52.080;5.312;2022-08-11T14:58:38;101937.0;;;36.03;23.25
34454;BME280;60061;52.080;5.312;2022-08-11T15:00:29;101940.0;;;35.93;23.75
34454;BME280;60061;52.080;5.312;2022-08-11T15:03:21;101933.0;;;35.71;21.04
34454;BME280;60061;52.080;5.312;2022-08-11T15:05:09;101930.0;;;35.81;21.03
34454;BME280;60061;52.080;5.312;2022-08-11T15:06:57;101935.0;;;35.72;23.62
34454;BME280;60061;52.080;5.312;2022-08-11T15:09:00;101932.0;;;35.81;21.53
34454;BME280;60061;52.080;5.312;2022-08-11T15:10:48;101931.0;;;35.46;21.46
34454;BME280;60061;52.080;5.312;2022-08-11T15:12:36;101926.0;;;35.36;21.86
34454;BME280;60061;52.080;5.312;2022-08-11T15:18:12;101921.0;;;34.96;22.02
34454;BME280;60061;52.080;5.312;2022-08-11T15:24:24;101912.0;;;35.24;22.45
34454;BME280;60061;52.080;5.312;2022-08-11T15:26:14;101911.0;;;35.4;23.39
34454;BME280;60061;52.080;5.312;2022-08-11T15:38:40;101912.0;;;35.42;21.59
34454;BME280;60061;52.080;5.312;2022-08-11T15:46:37;101894.0;;;35.17;22.47
34454;BME280;60061;52.080;5.312;2022-08-11T15:48:34;101893.0;;;35.21;22.31
34454;BME280;60061;52.080;5.312;2022-08-11T15:50:32;101900.0;;;35.17;22.89
34454;BME280;60061;52.080;5.312;2022-08-11T15:52:22;101890.0;;;35.12;23.1
34454;BME280;60061;52.080;5.312;2022-08-11T15:54:13;101894.0;;;35.11;21.73
34454;BME280;60061;52.080;5.312;2022-08-11T15:56:01;101887.0;;;34.97;21.99